Gibson, IA (50104)

7:35 AM CDT on July 10, 2014 (GMT -0500)
Dietze Weather Station (KIAMILLE3) Elev 883 ft | 41.57 °N, 92.16 °W | Change Station

Current weather conditions updated 1 second ago

Clear
Clear
64.3 °F
Feels Like 64.3 °F
N
2.5
Wind Variable Wind from SW
Gusts 2.5 mph

Today is forecast to be Cooler than yesterday. A few showers developing late tonight.

Today
High -- | Low -- °F
--% Chance of Precip.
Yesterday
High -- | Low -- °F
Precip. -- in
5:45 AM 8:44 PM
Waxing Gibbous, 94% visible
Pressure 30.11 in
Visibility 10.0 miles
Clouds Clear
Dew Point 60 °F
Humidity 85%
Rainfall 0.00 in
Snow Depth Not available.
UV 1 out of 12
Pollen 3.70 out of 12
Air Quality Not available.
Flu Activity Sporadic
METAR KOOA 101215Z AUTO 19003KT 10SM CLR 17/15 A3011 RMK AO2 T01650152

More Conditions Fewer Conditions

Pressure 30.11 in
Visibility 10.0 miles
Clouds Clear
Dew Point 60 °F
Humidity 85%
Rainfall 0.00 in
Snow Depth Not available.
UV 1 out of 12
Pollen 3.70 out of 12
Air Quality Not available.
Flu Activity Sporadic
METAR KOOA 101215Z AUTO 19003KT 10SM CLR 17/15 A3011 RMK AO2 T01650152

More Conditions Fewer Conditions

10-Day Weather Forecast

Almanac

Astronomy

Jul. 10, 2014 Rise Set
Actual Time 5:45 AM CDT 8:44 PM CDT
Civil Twilight 5:11 AM CDT 9:17 PM CDT
Nautical Twilight 4:29 AM CDT 9:59 PM CDT
Astronomical Twilight 3:39 AM CDT 10:49 PM CDT
Moon 6:56 PM CDT 3:57 AM CDT
Length of Visible Light 16h 05m
Length of Day
14h 59m
Tomorrow will be 1m 12s shorter.
Waxing Gibbous, 94% of the Moon is Illuminated
Today
Waxing Gibbous
Jul 12
Full
Jul 18
Last Quarter
Jul 26
New
Aug 3
First Quarter

Today's Extremes

State Highs State Lows

Community

WunderPhotos

Upload Photos

1,732,115 photos uploaded!

Nearby

Snow Depth

Station Depth Elevation
No new snow has been reported.

Earthquake Activity

City Distance Mag. Time & Date
No recent earthquake activity has been reported nearby.
Minimum magnitude displayed is 2.5.

Coastal Water Temperatures

Place Temperature
No Stations Reporting

Nearby Weather Stations

Station Location Temp. Dew Point Humidity Wind Precip. Elev Updated Type
Dietze Weather Station, Millersburg, IA 64.3 °F 60 °F 85% SW  at  2.5 mph 0.00 in / hr 883 ft 7:35 AM CDT Rapid Fire
Williamsburg South, Williamsburg, IA 68.2 °F 61 °F 77% SSW  at  3.2 mph 0.00 in / hr 879 ft 7:35 AM CDT Rapid Fire
Oskaloosa, IA 65.4 °F 57 °F 75% West  at  0.0 mph 0.00 in / hr 846 ft 7:34 AM CDT Rapid Fire
Williamsburg, IA 62.8 °F 58 °F 86% SE  at  0.0 mph 0.00 in / hr 820 ft 7:34 AM CDT Rapid Fire

Show More Stations Show Fewer Stations